Time;durP1;ratioP1;P1;durP2;ratioP2;P2;SDS_P1;SDS_P2;PMS_P1;PMS_P2;Temp;Humidity;BMP_temperature;BMP_pressure;BME280_temperature;BME280_humidity;BME280_pressure;Samples;Min_cycle;Max_cycle;Signal;HPM_P1;HPM_P2
2022/05/08 00:01:08;14477.00;0.05;25.70;0.00;0.00;0.62;;;;;17.20;1.00;;;;;;2260367;61;1385;-85
2022/05/08 00:03:35;1177503.00;3.93;2049.60;61430.00;0.20;106.95;;;;;17.00;1.00;;;;;;2260444;61;2260;-84
2022/05/08 00:06:07;965072.00;3.22;1670.71;102773.00;0.34;178.36;;;;;17.00;1.00;;;;;;2260233;61;1285;-84
2022/05/08 00:08:34;755204.00;2.52;1303.11;131461.00;0.44;227.85;;;;;17.20;1.00;;;;;;2260436;61;1099;-84
2022/05/08 00:11:00;280813.00;0.94;484.94;77941.00;0.26;135.48;;;;;17.50;1.00;;;;;;2260133;61;1940;-84
2022/05/08 00:13:30;239809.00;0.80;414.42;77726.00;0.26;135.11;;;;;17.30;1.00;;;;;;2260281;61;1099;-84
2022/05/08 00:15:58;250851.00;0.84;433.41;46450.00;0.15;81.05;;;;;17.40;1.00;;;;;;2260193;61;1133;-84
2022/05/08 00:18:26;43290.00;0.14;75.58;0.00;0.00;0.62;;;;;17.10;1.00;;;;;;2260340;61;1089;-84
2022/05/08 00:20:53;46310.00;0.15;80.80;0.00;0.00;0.62;;;;;17.00;1.00;;;;;;2260358;61;1388;-85
2022/05/08 00:23:20;340898.00;1.14;588.22;28225.00;0.09;49.51;;;;;17.10;1.00;;;;;;2260264;61;1121;-85
2022/05/08 00:25:46;22658.00;0.08;39.87;0.00;0.00;0.62;;;;;17.00;1.00;;;;;;2260341;61;1076;-85
2022/05/08 00:28:13;39928.00;0.13;69.76;0.00;0.00;0.62;;;;;16.80;1.00;;;;;;2260379;61;1291;-85
2022/05/08 00:30:41;25014.00;0.08;43.95;0.00;0.00;0.62;;;;;16.60;1.00;;;;;;2260265;61;2002;-85
2022/05/08 00:33:09;97261.00;0.32;168.84;31179.00;0.10;54.62;;;;;16.40;1.00;;;;;;2260269;61;1160;-85
2022/05/08 00:35:36;199100.00;0.66;344.37;0.00;0.00;0.62;;;;;16.40;1.00;;;;;;2260331;61;1115;-85
2022/05/08 00:38:03;11879.00;0.04;21.20;0.00;0.00;0.62;;;;;16.30;1.00;;;;;;2260402;61;1040;-84
2022/05/08 00:40:35;31056.00;0.10;54.41;0.00;0.00;0.62;;;;;16.40;1.00;;;;;;2260230;61;1304;-85
2022/05/08 00:43:32;81081.00;0.27;140.90;0.00;0.00;0.62;;;;;16.50;1.00;;;;;;2260495;61;1141;-85
2022/05/08 00:46:00;20282.00;0.07;35.76;0.00;0.00;0.62;;;;;16.40;1.00;;;;;;2260462;61;1095;-85
2022/05/08 00:48:29;75141.00;0.25;130.64;0.00;0.00;0.62;;;;;16.30;1.00;;;;;;2260472;61;1103;-85
2022/05/08 00:50:56;217028.00;0.72;375.23;23775.00;0.08;41.81;;;;;16.40;1.00;;;;;;2260135;61;1936;-85
2022/05/08 00:53:26;0.00;0.00;0.62;0.00;0.00;0.62;;;;;16.40;1.00;;;;;;2260161;61;1005;-84
2022/05/08 00:55:55;0.00;0.00;0.62;0.00;0.00;0.62;;;;;16.40;1.00;;;;;;2260266;61;1140;-81
2022/05/08 00:58:22;0.00;0.00;0.62;0.00;0.00;0.62;;;;;16.20;1.00;;;;;;2260161;61;1159;-83
2022/05/08 01:00:49;466600.00;1.56;804.34;120312.00;0.40;208.62;;;;;16.40;1.00;;;;;;2260242;61;1309;-85
2022/05/08 01:03:16;1856824.00;6.19;3334.36;178062.00;0.59;308.15;;;;;16.50;1.00;;;;;;2260281;61;1149;-84
2022/05/08 01:05:45;1425417.00;4.75;2503.55;171340.00;0.57;296.57;;;;;16.70;1.00;;;;;;2260218;61;1040;-85
2022/05/08 01:08:13;259887.00;0.87;448.95;81572.00;0.27;141.75;;;;;16.60;1.00;;;;;;2259658;61;1530;-85
2022/05/08 01:10:41;0.00;0.00;0.62;0.00;0.00;0.62;;;;;16.80;1.00;;;;;;2260205;61;1916;-84
2022/05/08 01:13:08;176594.00;0.59;305.62;32050.00;0.11;56.13;;;;;16.70;1.00;;;;;;2260205;61;1066;-84
2022/05/08 01:15:42;0.00;0.00;0.62;0.00;0.00;0.62;;;;;16.60;1.00;;;;;;2260173;61;1031;-84
2022/05/08 01:18:11;222063.00;0.74;383.89;0.00;0.00;0.62;;;;;16.50;1.00;;;;;;2260056;61;1149;-85
2022/05/08 01:20:39;62392.00;0.21;108.61;0.00;0.00;0.62;;;;;16.50;1.00;;;;;;2260290;61;2249;-84
2022/05/08 01:23:08;101467.00;0.34;176.10;0.00;0.00;0.62;;;;;16.60;1.00;;;;;;2260301;61;998;-84
2022/05/08 01:25:35;271229.00;0.90;468.46;20232.00;0.07;35.67;;;;;16.80;1.00;;;;;;2260337;61;1107;-85
2022/05/08 01:28:04;1132099.00;3.77;1967.92;122118.00;0.41;211.74;;;;;16.60;1.00;;;;;;2260353;61;1139;-84
2022/05/08 01:30:32;1456519.00;4.86;2561.57;229131.00;0.76;396.05;;;;;16.40;1.00;;;;;;2260005;61;1924;-84
2022/05/08 01:33:00;1184563.00;3.95;2062.33;149379.00;0.50;258.74;;;;;16.20;1.00;;;;;;2260147;61;1155;-84
2022/05/08 01:35:27;677564.00;2.26;1168.35;114206.00;0.38;198.09;;;;;16.00;1.00;;;;;;2260199;61;1086;-85
2022/05/08 01:37:54;574770.00;1.92;990.68;181995.00;0.61;314.93;;;;;16.10;1.00;;;;;;2260085;61;995;-84
2022/05/08 01:40:23;210264.00;0.70;363.59;79179.00;0.26;137.62;;;;;16.00;1.00;;;;;;2259962;61;1002;-85
2022/05/08 01:42:50;3627.00;0.01;6.91;0.00;0.00;0.62;;;;;16.00;1.00;;;;;;2260151;61;1397;-84
2022/05/08 01:45:17;9528.00;0.03;17.13;0.00;0.00;0.62;;;;;16.00;1.00;;;;;;2260115;61;995;-83
2022/05/08 01:50:28;342054.00;1.14;590.20;110104.00;0.37;191.01;;;;;16.20;1.00;;;;;;2259950;61;1924;-85
2022/05/08 01:52:55;8390.00;0.03;15.16;0.00;0.00;0.62;;;;;16.00;1.00;;;;;;2260176;61;1222;-84
2022/05/08 01:55:23;9875.00;0.03;17.73;0.00;0.00;0.62;;;;;15.90;1.00;;;;;;2260226;61;1028;-85
2022/05/08 01:57:50;24882.00;0.08;43.72;0.00;0.00;0.62;;;;;16.30;1.00;;;;;;2260139;61;1002;-85
2022/05/08 02:00:18;32385.00;0.11;56.71;0.00;0.00;0.62;;;;;16.50;1.00;;;;;;2260144;61;978;-85
2022/05/08 02:02:48;0.00;0.00;0.62;0.00;0.00;0.62;;;;;16.10;1.00;;;;;;2260092;61;2213;-85
2022/05/08 02:05:16;87484.00;0.29;151.96;0.00;0.00;0.62;;;;;15.90;1.00;;;;;;2260099;61;1158;-84
2022/05/08 02:07:45;0.00;0.00;0.62;0.00;0.00;0.62;;;;;15.70;1.00;;;;;;2260046;61;1122;-84
2022/05/08 02:10:12;0.00;0.00;0.62;0.00;0.00;0.62;;;;;15.60;1.00;;;;;;2259985;61;2243;-84
2022/05/08 02:12:42;47716.00;0.16;83.24;0.00;0.00;0.62;;;;;16.20;1.00;;;;;;2260046;61;1396;-85
2022/05/08 02:15:11;75236.00;0.25;130.81;6457.00;0.02;11.81;;;;;16.50;1.00;;;;;;2260044;61;1101;-84
2022/05/08 02:17:39;942322.00;3.14;1630.58;172959.00;0.58;299.36;;;;;16.30;1.00;;;;;;2260006;61;1168;-84
2022/05/08 02:20:08;255858.00;0.85;442.03;0.00;0.00;0.62;;;;;16.30;1.00;;;;;;2259951;61;1299;-85
2022/05/08 02:22:35;47984.00;0.16;83.70;0.00;0.00;0.62;;;;;16.20;1.00;;;;;;2260119;61;1409;-84
2022/05/08 02:25:03;0.00;0.00;0.62;0.00;0.00;0.62;;;;;16.30;1.00;;;;;;2260146;61;1058;-84
2022/05/08 02:27:36;0.00;0.00;0.62;0.00;0.00;0.62;;;;;16.40;1.00;;;;;;2259983;61;1075;-85
2022/05/08 02:30:05;0.00;0.00;0.62;0.00;0.00;0.62;;;;;16.70;1.00;;;;;;2260465;61;1990;-85
2022/05/08 02:32:32;0.00;0.00;0.62;0.00;0.00;0.62;;;;;16.80;1.00;;;;;;2260746;61;1485;-83
2022/05/08 02:34:59;0.00;0.00;0.62;0.00;0.00;0.62;;;;;17.00;1.00;;;;;;2260791;61;1116;-84
2022/05/08 02:37:26;137199.00;0.46;237.74;0.00;0.00;0.62;;;;;16.80;1.00;;;;;;2260834;61;1076;-84
2022/05/08 02:39:53;0.00;0.00;0.62;0.00;0.00;0.62;;;;;16.70;1.00;;;;;;2260623;61;1018;-84
2022/05/08 02:42:20;371517.00;1.24;640.84;67842.00;0.23;118.03;;;;;16.70;1.00;;;;;;2260717;61;1315;-84
2022/05/08 02:44:47;103873.00;0.35;180.26;0.00;0.00;0.62;;;;;16.80;1.00;;;;;;2260756;61;1104;-84
2022/05/08 02:47:15;36363.00;0.12;63.60;0.00;0.00;0.62;;;;;16.50;1.00;;;;;;2260721;61;1104;-84
2022/05/08 02:49:42;0.00;0.00;0.62;0.00;0.00;0.62;;;;;16.60;1.00;;;;;;2260666;61;2044;-83
2022/05/08 02:52:09;193376.00;0.64;334.52;8792.00;0.03;15.86;;;;;16.50;1.00;;;;;;2260654;61;1469;-84
2022/05/08 02:54:36;986443.00;3.29;1708.48;55922.00;0.19;97.43;;;;;16.80;1.00;;;;;;2260804;61;1082;-84
2022/05/08 02:59:47;1427013.00;4.76;2506.52;105663.00;0.35;183.35;;;;;16.90;1.00;;;;;;2260764;61;657;-84
2022/05/08 03:02:16;233665.00;0.78;403.85;85268.00;0.28;148.14;;;;;16.90;1.00;;;;;;2260727;61;1298;-85
2022/05/08 03:04:45;184895.00;0.62;319.92;97787.00;0.33;169.75;;;;;16.50;1.00;;;;;;2260702;61;1151;-85
2022/05/08 03:07:12;196271.00;0.65;339.50;86518.00;0.29;150.29;;;;;16.20;1.00;;;;;;2260627;61;1025;-85
2022/05/08 03:09:39;556290.00;1.85;958.80;134394.00;0.45;232.91;;;;;16.20;1.00;;;;;;2260608;61;1659;-85
2022/05/08 03:12:07;57223.00;0.19;99.68;0.00;0.00;0.62;;;;;15.70;1.00;;;;;;2260505;61;1944;-85
2022/05/08 03:14:34;0.00;0.00;0.62;0.00;0.00;0.62;;;;;15.70;1.00;;;;;;2260673;61;2257;-85
2022/05/08 03:17:00;125842.00;0.42;218.16;4749.00;0.02;8.85;;;;;15.90;1.00;;;;;;2260716;61;1094;-84
2022/05/08 03:19:29;0.00;0.00;0.62;0.00;0.00;0.62;;;;;15.90;1.00;;;;;;2260655;61;1105;-83
2022/05/08 03:21:56;226636.00;0.76;391.76;0.00;0.00;0.62;;;;;15.60;1.00;;;;;;2260514;61;1703;-85
2022/05/08 03:24:23;52252.00;0.17;91.08;0.00;0.00;0.62;;;;;15.30;1.00;;;;;;2260722;61;1098;-84
2022/05/08 03:26:50;371398.00;1.24;640.64;82619.00;0.28;143.56;;;;;15.50;1.00;;;;;;2260593;61;1060;-85
2022/05/08 03:29:17;151193.00;0.50;261.86;0.00;0.00;0.62;;;;;15.40;1.00;;;;;;2260691;61;1023;-84
2022/05/08 03:31:44;1366132.00;4.55;2393.66;89697.00;0.30;155.78;;;;;15.50;1.00;;;;;;2260496;61;2001;-85
2022/05/08 03:34:11;661081.00;2.20;1139.81;2746.00;0.01;5.38;;;;;15.40;1.00;;;;;;2260621;61;1142;-86
2022/05/08 03:36:39;1359584.00;4.53;2381.57;120467.00;0.40;208.89;;;;;15.40;1.00;;;;;;2260618;61;1140;-86
2022/05/08 03:39:06;1080862.00;3.60;1876.23;88329.00;0.29;153.42;;;;;15.20;1.00;;;;;;2260663;61;992;-86
2022/05/08 03:41:33;917925.00;3.06;1587.62;127888.00;0.43;221.69;;;;;15.20;1.00;;;;;;2260511;61;1305;-85
2022/05/08 03:44:00;755249.00;2.52;1303.19;114503.00;0.38;198.60;;;;;15.50;1.00;;;;;;2260714;61;1144;-85
2022/05/08 03:46:26;268832.00;0.90;464.34;80391.00;0.27;139.71;;;;;15.80;1.00;;;;;;2260702;61;1137;-85
2022/05/08 03:48:54;200370.00;0.67;346.56;82107.00;0.27;142.68;;;;;16.20;1.00;;;;;;2260608;61;1084;-86
2022/05/08 03:51:21;236232.00;0.79;408.27;84477.00;0.28;146.77;;;;;16.40;1.00;;;;;;2260491;61;1996;-85
2022/05/08 03:53:50;0.00;0.00;0.62;0.00;0.00;0.62;;;;;15.90;1.00;;;;;;2260573;61;1100;-85
2022/05/08 03:56:17;222734.00;0.74;385.05;39913.00;0.13;69.74;;;;;15.90;1.00;;;;;;2260525;61;1172;-84
2022/05/08 03:58:44;62391.00;0.21;108.61;0.00;0.00;0.62;;;;;15.40;1.00;;;;;;2260561;61;1702;-85
2022/05/08 04:01:11;159533.00;0.53;276.23;18369.00;0.06;32.45;;;;;14.90;1.00;;;;;;2260466;61;1448;-84
2022/05/08 04:03:38;113432.00;0.38;196.75;23560.00;0.08;41.43;;;;;15.10;1.00;;;;;;2260457;61;1025;-84
2022/05/08 04:06:05;36856.00;0.12;64.45;0.00;0.00;0.62;;;;;15.10;1.00;;;;;;2260483;61;1551;-85
2022/05/08 04:08:32;61793.00;0.21;107.58;0.00;0.00;0.62;;;;;15.20;1.00;;;;;;2260492;61;1032;-85
2022/05/08 04:11:01;0.00;0.00;0.62;0.00;0.00;0.62;;;;;15.40;1.00;;;;;;2260391;61;1923;-85
2022/05/08 04:13:28;51045.00;0.17;88.99;0.00;0.00;0.62;;;;;15.70;1.00;;;;;;2260404;61;2104;-85
2022/05/08 04:18:39;0.00;0.00;0.62;0.00;0.00;0.62;;;;;16.20;1.00;;;;;;2260625;61;670;-85
2022/05/08 04:21:06;0.00;0.00;0.62;0.00;0.00;0.62;;;;;16.60;1.00;;;;;;2260438;61;1314;-85
2022/05/08 04:26:19;0.00;0.00;0.62;0.00;0.00;0.62;;;;;16.40;1.00;;;;;;2260490;61;670;-85
2022/05/08 04:28:46;683439.00;2.28;1178.53;15809.00;0.05;28.01;;;;;16.00;1.00;;;;;;2260494;61;1770;-84
2022/05/08 04:31:13;1279696.00;4.27;2234.99;145359.00;0.48;251.81;;;;;16.00;1.00;;;;;;2260407;61;1915;-84
2022/05/08 04:33:39;494753.00;1.65;852.79;48911.00;0.16;85.30;;;;;16.20;1.00;;;;;;2260397;61;1027;-84
2022/05/08 04:36:06;184418.00;0.61;319.10;81124.00;0.27;140.98;;;;;16.20;1.00;;;;;;2260378;61;1029;-85
2022/05/08 04:38:33;14710.00;0.05;26.11;0.00;0.00;0.62;;;;;16.40;1.00;;;;;;2260444;61;1159;-83
2022/05/08 04:41:00;0.00;0.00;0.62;0.00;0.00;0.62;;;;;16.40;1.00;;;;;;2260364;61;1349;-84
2022/05/08 04:43:28;0.00;0.00;0.62;0.00;0.00;0.62;;;;;16.50;1.00;;;;;;2260368;61;994;-84
2022/05/08 04:45:55;127897.00;0.43;221.70;0.00;0.00;0.62;;;;;15.90;1.00;;;;;;2260384;61;1082;-85
2022/05/08 04:48:22;41974.00;0.14;73.30;0.00;0.00;0.62;;;;;16.00;1.00;;;;;;2260392;61;1122;-85
2022/05/08 04:50:49;0.00;0.00;0.62;0.00;0.00;0.62;;;;;16.30;1.00;;;;;;2260300;61;2018;-84
2022/05/08 04:53:16;36573.00;0.12;63.96;0.00;0.00;0.62;;;;;16.10;1.00;;;;;;2260240;61;1156;-84
2022/05/08 04:55:43;42482.00;0.14;74.18;0.00;0.00;0.62;;;;;16.00;1.00;;;;;;2260277;61;984;-85
2022/05/08 04:58:10;35937.00;0.12;62.86;0.00;0.00;0.62;;;;;16.20;1.00;;;;;;2260281;61;1128;-86
2022/05/08 05:00:39;180633.00;0.60;312.58;0.00;0.00;0.62;;;;;16.30;1.00;;;;;;2260357;61;1255;-86
2022/05/08 05:03:06;23188.00;0.08;40.79;0.00;0.00;0.62;;;;;16.10;1.00;;;;;;2260381;61;1174;-86
2022/05/08 05:05:33;238135.00;0.79;411.54;0.00;0.00;0.62;;;;;16.20;1.00;;;;;;2260356;61;1140;-85
2022/05/08 05:08:00;513972.00;1.71;885.88;5120.00;0.02;9.49;;;;;16.20;1.00;;;;;;2260278;61;1081;-85
2022/05/08 05:10:27;1355164.00;4.52;2373.42;119245.00;0.40;206.78;;;;;15.70;1.00;;;;;;2260174;61;1919;-85
2022/05/08 05:12:54;726672.00;2.42;1253.52;7125.00;0.02;12.97;;;;;14.90;1.00;;;;;;2260335;61;1085;-86
2022/05/08 05:15:24;284590.00;0.95;491.43;80384.00;0.27;139.70;;;;;14.70;1.00;;;;;;2260349;61;1122;-85
2022/05/08 05:17:52;265069.00;0.88;457.87;84470.00;0.28;146.76;;;;;15.00;1.00;;;;;;2260212;61;1527;-84
2022/05/08 05:20:19;243009.00;0.81;419.93;80164.00;0.27;139.32;;;;;15.40;1.00;;;;;;2260246;61;1108;-84
2022/05/08 05:22:46;68039.00;0.23;118.37;0.00;0.00;0.62;;;;;15.90;1.00;;;;;;2260265;61;1184;-84
2022/05/08 05:25:13;262.00;0.00;1.07;0.00;0.00;0.62;;;;;16.10;1.00;;;;;;2260330;61;924;-86
2022/05/08 05:27:40;67130.00;0.22;116.80;0.00;0.00;0.62;;;;;15.80;1.00;;;;;;2260209;61;1064;-85
2022/05/08 05:30:09;12580.00;0.04;22.42;0.00;0.00;0.62;;;;;15.60;1.00;;;;;;2260350;61;1085;-85
2022/05/08 05:32:36;244207.00;0.81;421.99;79700.00;0.27;138.52;;;;;15.90;1.00;;;;;;2260307;61;1924;-84
2022/05/08 05:35:04;1083429.00;3.61;1880.81;127112.00;0.42;220.35;;;;;16.50;1.00;;;;;;2260277;61;1095;-85
2022/05/08 05:37:31;1368042.00;4.56;2397.18;195261.00;0.65;337.77;;;;;16.20;1.00;;;;;;2260294;61;1162;-85
2022/05/08 05:39:58;1412153.00;4.71;2478.88;139570.00;0.47;241.83;;;;;16.00;1.00;;;;;;2260201;61;1195;-85
2022/05/08 05:42:25;219329.00;0.73;379.19;76313.00;0.25;132.67;;;;;15.80;1.00;;;;;;2260254;61;1405;-85
2022/05/08 05:44:52;214439.00;0.71;370.77;85952.00;0.29;149.32;;;;;15.40;1.00;;;;;;2260189;61;1728;-84
2022/05/08 05:50:06;227243.00;0.76;392.81;8537.00;0.03;15.41;;;;;15.40;1.00;;;;;;2259926;61;634;-85
2022/05/08 05:52:35;48230.00;0.16;84.13;0.00;0.00;0.62;;;;;15.40;1.00;;;;;;2260084;61;1936;-85
2022/05/08 05:55:04;0.00;0.00;0.62;0.00;0.00;0.62;;;;;15.60;1.00;;;;;;2260104;61;949;-85
2022/05/08 05:57:31;0.00;0.00;0.62;0.00;0.00;0.62;;;;;15.90;1.00;;;;;;2259992;61;1454;-84
2022/05/08 05:59:58;71578.00;0.24;124.49;4564.00;0.02;8.53;;;;;16.30;1.00;;;;;;2260122;61;1568;-84
2022/05/08 06:02:25;89721.00;0.30;155.83;0.00;0.00;0.62;;;;;16.90;1.00;;;;;;2259956;61;1553;-84
2022/05/08 06:04:52;35498.00;0.12;62.10;0.00;0.00;0.62;;;;;17.10;1.00;;;;;;2259960;61;1512;-85
2022/05/08 06:07:21;280051.00;0.93;483.63;0.00;0.00;0.62;;;;;17.00;1.00;;;;;;2260119;61;1569;-84
2022/05/08 06:09:48;256574.00;0.86;443.26;21088.00;0.07;37.15;;;;;17.00;1.00;;;;;;2259897;61;1380;-85
2022/05/08 06:12:16;259474.00;0.86;448.24;35560.00;0.12;62.21;;;;;17.00;1.00;;;;;;2259708;61;2010;-83
2022/05/08 06:14:46;128539.00;0.43;222.81;0.00;0.00;0.62;;;;;17.10;1.00;;;;;;2260038;61;1613;-85
2022/05/08 06:17:13;1066544.00;3.56;1850.69;138397.00;0.46;239.81;;;;;17.50;1.00;;;;;;2259959;61;1670;-85
2022/05/08 06:19:41;1050774.00;3.50;1822.61;11351.00;0.04;20.29;;;;;17.90;1.00;;;;;;2259939;61;936;-84
2022/05/08 06:22:08;891111.00;2.97;1540.51;132785.00;0.44;230.13;;;;;18.00;1.00;;;;;;2260036;61;1666;-84
2022/05/08 06:24:38;901467.00;3.00;1558.70;50852.00;0.17;88.66;;;;;18.40;1.00;;;;;;2260116;61;1713;-85
2022/05/08 06:27:05;1955879.00;6.52;3534.12;63179.00;0.21;109.97;;;;;18.80;1.00;;;;;;2259858;61;1448;-85
2022/05/08 06:29:33;226067.00;0.75;390.78;81202.00;0.27;141.11;;;;;18.90;1.00;;;;;;2259745;61;2043;-85
2022/05/08 06:32:00;0.00;0.00;0.62;0.00;0.00;0.62;;;;;19.00;1.00;;;;;;2259729;61;2015;-85
2022/05/08 06:34:27;122995.00;0.41;213.25;57002.00;0.19;99.29;;;;;18.90;1.00;;;;;;2259882;61;1719;-85
2022/05/08 06:36:55;218555.00;0.73;377.86;0.00;0.00;0.62;;;;;18.90;1.00;;;;;;2259685;61;1459;-84
2022/05/08 06:39:22;19380.00;0.06;34.20;0.00;0.00;0.62;;;;;18.50;1.00;;;;;;2259691;61;1448;-84
2022/05/08 06:41:50;10990.00;0.04;19.66;0.00;0.00;0.62;;;;;18.80;1.00;;;;;;2259555;61;1535;-84
2022/05/08 06:44:17;203067.00;0.68;351.20;0.00;0.00;0.62;;;;;19.50;1.00;;;;;;2260082;61;1150;-84
2022/05/08 06:46:44;31828.00;0.11;55.75;0.00;0.00;0.62;;;;;20.60;1.00;;;;;;2259689;61;2109;-85
2022/05/08 06:49:11;28447.00;0.09;49.89;0.00;0.00;0.62;;;;;20.60;1.00;;;;;;2259449;61;1788;-84
2022/05/08 06:51:39;41696.00;0.14;72.82;0.00;0.00;0.62;;;;;21.10;1.00;;;;;;2259343;61;1930;-85
2022/05/08 06:54:06;127541.00;0.43;221.09;0.00;0.00;0.62;;;;;21.20;1.00;;;;;;2259400;61;1668;-85
2022/05/08 06:56:35;99812.00;0.33;173.25;0.00;0.00;0.62;;;;;20.70;1.00;;;;;;2259549;61;1621;-83
2022/05/08 07:01:49;124100.00;0.41;215.15;7127.00;0.02;12.97;;;;;20.40;1.00;;;;;;2259643;61;1412;-86
2022/05/08 07:04:16;1136817.00;3.79;1976.39;46948.00;0.16;81.91;;;;;20.80;1.00;;;;;;2259495;61;1544;-85
2022/05/08 07:06:43;1288491.00;4.29;2251.06;91545.00;0.31;158.98;;;;;21.20;1.00;;;;;;2259769;61;2397;-86
2022/05/08 07:09:10;366340.00;1.22;631.95;0.00;0.00;0.62;;;;;21.90;1.00;;;;;;2259275;61;1562;-85
2022/05/08 07:11:38;362053.00;1.21;624.58;152365.00;0.51;263.88;;;;;22.50;1.00;;;;;;2259596;61;2010;-85
2022/05/08 07:14:06;0.00;0.00;0.62;0.00;0.00;0.62;;;;;22.90;1.00;;;;;;2259915;61;1121;-83
2022/05/08 07:16:33;0.00;0.00;0.62;0.00;0.00;0.62;;;;;23.40;1.00;;;;;;2260310;61;1679;-84
2022/05/08 07:19:00;363458.00;1.21;626.99;39568.00;0.13;69.14;;;;;23.80;1.00;;;;;;2260360;61;1101;-86
2022/05/08 07:21:27;1268140.00;4.23;2213.92;42210.00;0.14;73.71;;;;;23.60;1.00;;;;;;2260464;61;1826;-86
2022/05/08 07:23:55;1859518.00;6.20;3339.75;93270.00;0.31;161.95;;;;;24.30;1.00;;;;;;2260570;61;1719;-86
2022/05/08 07:26:23;249830.00;0.83;431.66;0.00;0.00;0.62;;;;;24.50;1.00;;;;;;2260067;61;1710;-85
2022/05/08 07:28:50;78317.00;0.26;136.13;0.00;0.00;0.62;;;;;24.60;1.00;;;;;;2260375;61;1568;-85
2022/05/08 07:31:19;38192.00;0.13;66.76;0.00;0.00;0.62;;;;;25.00;1.00;;;;;;2260207;61;2001;-85
2022/05/08 07:33:46;48723.00;0.16;84.98;0.00;0.00;0.62;;;;;25.00;1.00;;;;;;2260368;61;1779;-85
2022/05/08 07:36:15;26907.00;0.09;47.23;0.00;0.00;0.62;;;;;25.90;1.00;;;;;;2260427;61;1780;-85
2022/05/08 07:38:44;852776.00;2.84;1473.33;49427.00;0.16;86.20;;;;;26.50;1.00;;;;;;2260492;61;1568;-85
2022/05/08 07:41:12;1167572.00;3.89;2031.70;41575.00;0.14;72.61;;;;;26.80;1.00;;;;;;2260108;61;1710;-85
2022/05/08 07:43:39;1363303.00;4.54;2388.43;99240.00;0.33;172.26;;;;;28.00;1.00;;;;;;2260410;61;1688;-84
2022/05/08 07:46:07;817212.00;2.72;1411.16;102815.00;0.34;178.43;;;;;27.50;1.00;;;;;;2260518;61;2141;-85
2022/05/08 07:48:35;298099.00;0.99;514.65;72811.00;0.24;126.62;;;;;27.60;1.00;;;;;;2260369;61;1860;-86
2022/05/08 07:51:03;159468.00;0.53;276.12;76256.00;0.25;132.57;;;;;27.60;1.00;;;;;;2260058;61;1534;-86
2022/05/08 07:53:31;69267.00;0.23;120.49;0.00;0.00;0.62;;;;;28.40;1.00;;;;;;2260367;61;1936;-87
2022/05/08 07:55:58;143001.00;0.48;247.74;0.00;0.00;0.62;;;;;27.60;1.00;;;;;;2260416;61;1061;-85
2022/05/08 07:58:29;409720.00;1.37;706.52;84114.00;0.28;146.14;;;;;27.40;1.00;;;;;;2260595;61;1191;-85
2022/05/08 08:00:57;67050.00;0.22;116.66;0.00;0.00;0.62;;;;;28.50;1.00;;;;;;2260445;61;1594;-86
2022/05/08 08:03:25;119442.00;0.40;207.12;0.00;0.00;0.62;;;;;28.50;1.00;;;;;;2260450;61;1057;-86
2022/05/08 08:05:54;32956.00;0.11;57.70;0.00;0.00;0.62;;;;;29.10;1.00;;;;;;2260352;61;1664;-85
2022/05/08 08:08:23;117685.00;0.39;204.09;0.00;0.00;0.62;;;;;29.10;1.00;;;;;;2260080;61;1140;-86
2022/05/08 08:10:52;890820.00;2.97;1540.00;105459.00;0.35;182.99;;;;;28.00;1.00;;;;;;2260746;61;1675;-86
2022/05/08 08:13:20;1065708.00;3.55;1849.20;64055.00;0.21;111.49;;;;;28.10;1.00;;;;;;2264488;61;2006;-84
2022/05/08 08:15:47;247077.00;0.82;426.92;70470.00;0.23;122.57;;;;;28.60;1.00;;;;;;2264518;61;1028;-84
2022/05/08 08:18:15;22098.00;0.07;38.90;0.00;0.00;0.62;;;;;27.80;1.00;;;;;;2264514;61;1131;-85
2022/05/08 08:20:43;0.00;0.00;0.62;0.00;0.00;0.62;;;;;27.60;1.00;;;;;;2264361;61;1297;-85
2022/05/08 08:23:12;568273.00;1.89;979.47;101138.00;0.34;175.54;;;;;27.40;1.00;;;;;;2264309;61;1440;-85
2022/05/08 08:25:39;564551.00;1.88;973.05;15482.00;0.05;27.45;;;;;27.80;1.00;;;;;;2264500;61;1069;-86
2022/05/08 08:28:07;324679.00;1.08;560.34;14237.00;0.05;25.29;;;;;27.60;1.00;;;;;;2264080;61;1051;-84
2022/05/08 08:30:34;81873.00;0.27;142.27;16876.00;0.06;29.86;;;;;27.20;1.00;;;;;;2264259;61;1404;-85
2022/05/08 08:33:01;25220.00;0.08;44.31;0.00;0.00;0.62;;;;;27.50;1.00;;;;;;2264369;61;1916;-85
2022/05/08 08:35:28;173128.00;0.58;299.65;0.00;0.00;0.62;;;;;27.40;1.00;;;;;;2263692;61;1511;-85
2022/05/08 08:37:55;157888.00;0.53;273.40;0.00;0.00;0.62;;;;;26.90;1.00;;;;;;2260544;61;1095;-85
2022/05/08 08:40:24;1243553.00;4.15;2169.17;27981.00;0.09;49.09;;;;;26.20;1.00;;;;;;2260293;61;1211;-85
2022/05/08 08:42:51;309317.00;1.03;533.94;76636.00;0.26;133.23;;;;;24.50;1.00;;;;;;2260439;61;1351;-85
2022/05/08 08:48:07;0.00;0.00;0.62;0.00;0.00;0.62;;;;;24.50;1.00;;;;;;2260579;61;684;-85
2022/05/08 08:50:35;201182.00;0.67;347.96;0.00;0.00;0.62;;;;;24.10;1.00;;;;;;2260342;61;1373;-85
2022/05/08 08:53:05;218074.00;0.73;377.03;0.00;0.00;0.62;;;;;23.50;1.00;;;;;;2260049;61;1994;-85
2022/05/08 08:55:34;1738924.00;5.80;3101.31;94156.00;0.31;163.48;;;;;23.60;1.00;;;;;;2261973;61;1685;-84
2022/05/08 08:58:01;32972.00;0.11;57.73;0.00;0.00;0.62;;;;;24.10;1.00;;;;;;2260383;61;1816;-86
2022/05/08 09:00:28;1308673.00;4.36;2287.99;133150.00;0.44;230.76;;;;;24.20;1.00;;;;;;2260388;61;1116;-84
2022/05/08 09:02:56;468704.00;1.56;807.96;90643.00;0.30;157.42;;;;;23.40;1.00;;;;;;2260270;61;1564;-86
2022/05/08 09:05:25;84014.00;0.28;145.97;0.00;0.00;0.62;;;;;22.60;1.00;;;;;;2260156;61;1434;-84
2022/05/08 09:07:54;122456.00;0.41;212.32;0.00;0.00;0.62;;;;;22.60;1.00;;;;;;2260319;61;1326;-84
2022/05/08 09:10:23;137775.00;0.46;238.74;0.00;0.00;0.62;;;;;22.50;1.00;;;;;;2260194;61;1425;-84
2022/05/08 09:13:06;368309.00;1.23;635.33;1707.00;0.01;3.58;;;;;22.40;1.00;;;;;;2259991;61;2011;-85
2022/05/08 09:15:34;75440.00;0.25;131.16;0.00;0.00;0.62;;;;;22.90;1.00;;;;;;2264275;61;1438;-84
2022/05/08 09:18:02;874307.00;2.91;1511.04;177425.00;0.59;307.06;;;;;22.30;1.00;;;;;;2264196;61;1493;-86
2022/05/08 09:20:32;146125.00;0.49;253.13;0.00;0.00;0.62;;;;;22.70;1.00;;;;;;2264357;61;1357;-86
2022/05/08 09:23:11;78307.00;0.26;136.11;0.00;0.00;0.62;;;;;22.30;1.00;;;;;;2264226;61;2039;-86
2022/05/08 09:25:53;376302.00;1.25;649.07;71738.00;0.24;124.76;;;;;22.30;1.00;;;;;;2261105;61;1622;-85
2022/05/08 09:28:25;1027345.00;3.42;1780.96;39124.00;0.13;68.37;;;;;21.90;1.00;;;;;;2260099;61;1983;-84
2022/05/08 09:31:06;691095.00;2.30;1191.80;0.00;0.00;0.62;;;;;21.70;1.00;;;;;;2260108;61;1422;-85
2022/05/08 09:33:35;418674.00;1.40;721.91;117068.00;0.39;203.02;;;;;21.80;1.00;;;;;;2260154;61;1987;-85
2022/05/08 09:36:04;58014.00;0.19;101.04;0.00;0.00;0.62;;;;;22.50;1.00;;;;;;2259959;61;1081;-86
2022/05/08 09:38:55;292610.00;0.98;505.22;0.00;0.00;0.62;;;;;22.40;1.00;;;;;;2259905;61;1070;-86
2022/05/08 09:41:26;743647.00;2.48;1283.01;53352.00;0.18;92.98;;;;;22.30;1.00;;;;;;2257756;61;1319;-84
2022/05/08 09:43:56;449599.00;1.50;775.09;153830.00;0.51;266.41;;;;;21.70;1.00;;;;;;2260175;61;948;-85
2022/05/08 09:46:24;509966.00;1.70;878.98;40097.00;0.13;70.06;;;;;21.30;1.00;;;;;;2260189;61;1546;-85
2022/05/08 09:48:51;86349.00;0.29;150.00;0.00;0.00;0.62;;;;;21.70;1.00;;;;;;2260095;61;1563;-82
2022/05/08 09:51:18;531624.00;1.77;916.29;19283.00;0.06;34.03;;;;;22.10;1.00;;;;;;2260187;61;1381;-84
2022/05/08 09:53:46;1317558.00;4.39;2304.27;111350.00;0.37;193.16;;;;;22.20;1.00;;;;;;2260212;61;2002;-85
2022/05/08 09:56:14;597759.00;1.99;1030.35;211948.00;0.71;366.49;;;;;21.90;1.00;;;;;;2260176;61;1160;-85
2022/05/08 09:58:43;0.00;0.00;0.62;0.00;0.00;0.62;;;;;22.20;1.00;;;;;;2260165;61;1117;-84
2022/05/08 10:01:14;102500.00;0.34;177.89;0.00;0.00;0.62;;;;;22.20;1.00;;;;;;2259896;61;1365;-86
2022/05/08 10:03:43;13727.00;0.05;24.41;0.00;0.00;0.62;;;;;22.00;1.00;;;;;;2260163;61;1626;-85
2022/05/08 10:06:11;102680.00;0.34;178.20;26137.00;0.09;45.90;;;;;21.50;1.00;;;;;;2260078;61;1111;-85
2022/05/08 10:08:39;1301113.00;4.34;2274.14;118364.00;0.39;205.26;;;;;21.50;1.00;;;;;;2260163;61;1614;-86
2022/05/08 10:13:54;296186.00;0.99;511.36;75704.00;0.25;131.62;;;;;21.80;1.00;;;;;;2274912;58;1936;-85
2022/05/08 10:16:52;232196.00;0.77;401.33;10847.00;0.04;19.42;;;;;22.10;1.00;;;;;;2260087;61;1152;-85